createdAt,value
2023-02-19T00:00:32.758Z,102136.13
2023-02-19T00:03:22.155Z,102130.97
2023-02-19T00:06:12.253Z,102136.13
2023-02-19T00:09:00.436Z,102137.59
2023-02-19T00:11:49.166Z,102136.44
2023-02-19T00:14:37.172Z,102133.22
2023-02-19T00:17:25.211Z,102126.09
2023-02-19T00:20:15.186Z,102124.47
2023-02-19T00:23:03.168Z,102130.44
2023-02-19T00:25:51.434Z,102128.84
2023-02-19T00:28:40.021Z,102128.03
2023-02-19T00:31:32.527Z,102119.75
2023-02-19T00:34:21.031Z,102120.50
2023-02-19T00:37:10.402Z,102121.19
2023-02-19T00:39:58.451Z,102134.94
2023-02-19T00:42:46.713Z,102125.72
2023-02-19T00:45:35.678Z,102143.81
2023-02-19T00:48:23.675Z,102141.66
2023-02-19T00:51:11.989Z,102137.47
2023-02-19T00:54:02.002Z,102128.19
2023-02-19T00:56:50.806Z,102135.00
2023-02-19T00:59:38.830Z,102146.28
2023-02-19T01:02:27.716Z,102141.19
2023-02-19T01:05:15.758Z,102131.47
2023-02-19T01:08:04.189Z,102131.78
2023-02-19T01:10:53.654Z,102136.00
2023-02-19T01:13:42.689Z,102129.19
2023-02-19T01:16:31.130Z,102134.22
2023-02-19T01:19:19.422Z,102140.19
2023-02-19T01:22:07.503Z,102131.91
2023-02-19T01:24:55.485Z,102132.97
2023-02-19T01:27:44.849Z,102132.44
2023-02-19T01:30:35.369Z,102132.00
2023-02-19T01:33:23.470Z,102127.41
2023-02-19T01:36:11.916Z,102129.72
2023-02-19T01:39:03.821Z,102137.50
2023-02-19T01:41:51.830Z,102125.88
2023-02-19T01:45:18.990Z,102129.19
2023-02-19T01:48:10.972Z,102123.00
2023-02-19T01:51:05.084Z,102140.97
2023-02-19T01:53:58.434Z,102137.59
2023-02-19T01:56:48.788Z,102144.63
2023-02-19T01:59:37.130Z,102141.25
2023-02-19T02:02:28.335Z,102149.66
2023-02-19T02:05:25.747Z,102140.63
2023-02-19T02:08:33.384Z,102146.44
2023-02-19T02:11:22.027Z,102151.25
2023-02-19T02:14:10.053Z,102155.31
2023-02-19T02:17:06.073Z,102159.34
2023-02-19T02:20:21.962Z,102150.13
2023-02-19T02:23:17.626Z,102158.25
2023-02-19T02:26:18.377Z,102149.50
2023-02-19T02:29:38.441Z,102148.50
2023-02-19T02:32:33.048Z,102146.06
2023-02-19T02:35:24.624Z,102153.84
2023-02-19T02:38:15.239Z,102151.19
2023-02-19T02:41:03.784Z,102148.41
2023-02-19T02:43:52.020Z,102164.75
2023-02-19T02:46:43.507Z,102162.03
2023-02-19T02:49:55.838Z,102167.84
2023-02-19T02:53:06.846Z,102171.72
2023-02-19T02:55:55.604Z,102170.91
2023-02-19T02:58:45.367Z,102176.16
2023-02-19T03:01:56.566Z,102184.44
2023-02-19T03:05:11.346Z,102189.69
2023-02-19T03:08:07.554Z,102191.53
2023-02-19T03:11:20.068Z,102199.00
2023-02-19T03:14:31.636Z,102195.91
2023-02-19T03:17:42.705Z,102195.44
2023-02-19T03:20:36.925Z,102192.03
2023-02-19T03:23:48.730Z,102199.66
2023-02-19T03:26:37.587Z,102198.22
2023-02-19T03:29:29.201Z,102203.91
2023-02-19T03:32:22.854Z,102201.75
2023-02-19T03:35:14.906Z,102216.34
2023-02-19T03:38:09.911Z,102210.81
2023-02-19T03:41:04.760Z,102225.34
2023-02-19T03:44:01.094Z,102214.34
2023-02-19T03:46:57.087Z,102220.53
2023-02-19T03:49:49.736Z,102225.06
2023-02-19T03:52:45.048Z,102216.38
2023-02-19T03:55:45.540Z,102227.88
2023-02-19T03:58:39.545Z,102236.78
2023-02-19T04:01:32.566Z,102234.22
2023-02-19T04:04:24.720Z,102251.19
2023-02-19T04:07:13.176Z,102244.22
2023-02-19T04:10:01.839Z,102239.38
2023-02-19T04:12:55.172Z,102239.88
2023-02-19T04:15:45.538Z,102246.56
2023-02-19T04:18:37.302Z,102250.59
2023-02-19T04:21:25.976Z,102248.84
2023-02-19T04:24:20.373Z,102250.47
2023-02-19T04:27:10.746Z,102256.91
2023-02-19T04:30:00.176Z,102269.84
2023-02-19T04:32:48.540Z,102265.47
2023-02-19T04:35:36.773Z,102284.41
2023-02-19T04:38:25.229Z,102282.59
2023-02-19T04:41:13.351Z,102285.84
2023-02-19T04:44:01.454Z,102284.75
2023-02-19T04:46:51.019Z,102299.28
2023-02-19T04:49:39.494Z,102322.09
2023-02-19T04:52:27.484Z,102311.88
2023-02-19T04:55:15.418Z,102308.31
2023-02-19T04:58:03.451Z,102320.94
2023-02-19T05:00:54.694Z,102324.97
2023-02-19T05:03:44.777Z,102336.16
2023-02-19T05:06:32.866Z,102342.13
2023-02-19T05:09:21.062Z,102351.69
2023-02-19T05:12:09.465Z,102363.69
2023-02-19T05:14:57.446Z,102365.97
2023-02-19T05:17:45.472Z,102366.28
2023-02-19T05:20:34.805Z,102356.41
2023-02-19T05:23:22.798Z,102365.31
2023-02-19T05:26:13.784Z,102373.53
2023-02-19T05:29:02.099Z,102376.63
2023-02-19T05:31:50.218Z,102373.06
2023-02-19T05:34:38.365Z,102371.16
2023-02-19T05:37:27.681Z,102361.91
2023-02-19T05:40:15.690Z,102365.97
2023-02-19T05:43:04.180Z,102357.56
2023-02-19T05:45:52.159Z,102357.91
2023-02-19T05:48:40.631Z,102365.66
2023-02-19T05:51:28.897Z,102363.22
2023-02-19T05:54:18.218Z,102364.03
2023-02-19T05:57:06.304Z,102362.59
2023-02-19T05:59:54.297Z,102377.44
2023-02-19T06:02:42.749Z,102385.41
2023-02-19T06:05:30.792Z,102388.13
2023-02-19T06:08:18.993Z,102399.94
2023-02-19T06:11:08.785Z,102395.56
2023-02-19T06:13:57.039Z,102394.44
2023-02-19T06:16:45.064Z,102408.66
2023-02-19T06:19:33.157Z,102400.25
2023-02-19T06:22:21.088Z,102417.56
2023-02-19T06:25:12.505Z,102412.22
2023-02-19T06:28:01.894Z,102407.72
2023-02-19T06:30:51.518Z,102419.19
2023-02-19T06:33:41.391Z,102420.94
2023-02-19T06:36:29.583Z,102431.78
2023-02-19T06:39:17.627Z,102433.88
2023-02-19T06:42:05.777Z,102440.34
2023-02-19T06:44:55.172Z,102438.56
2023-02-19T06:47:43.158Z,102436.63
2023-02-19T06:50:31.102Z,102441.66
2023-02-19T06:53:19.062Z,102444.72
2023-02-19T06:56:09.157Z,102445.84
2023-02-19T06:59:04.121Z,102441.34
2023-02-19T07:01:53.621Z,102454.59
2023-02-19T07:04:42.217Z,102465.09
2023-02-19T07:07:30.211Z,102472.53
2023-02-19T07:10:18.820Z,102473.66
2023-02-19T07:13:06.907Z,102475.94
2023-02-19T07:16:00.576Z,102490.28
2023-02-19T07:18:49.989Z,102489.81
2023-02-19T07:21:38.371Z,102499.13
2023-02-19T07:24:26.430Z,102510.13
2023-02-19T07:27:14.374Z,102516.78
2023-02-19T07:30:03.185Z,102518.22
2023-02-19T07:32:51.206Z,102532.47
2023-02-19T07:35:46.872Z,102543.09
2023-02-19T07:38:34.964Z,102538.25
2023-02-19T07:41:23.222Z,102534.72
2023-02-19T07:44:13.487Z,102549.56
2023-02-19T07:47:01.474Z,102562.50
2023-02-19T07:49:49.519Z,102568.47
2023-02-19T07:52:38.992Z,102564.91
2023-02-19T07:55:27.092Z,102578.50
2023-02-19T07:58:15.228Z,102585.31
2023-02-19T08:01:09.725Z,102592.91
2023-02-19T08:03:58.039Z,102591.28
2023-02-19T08:06:46.044Z,102592.75
2023-02-19T08:09:36.026Z,102596.81
2023-02-19T08:12:41.684Z,102610.84
2023-02-19T08:15:29.759Z,102603.09
2023-02-19T08:18:18.548Z,102611.66
2023-02-19T08:21:06.941Z,102614.25
2023-02-19T08:23:54.931Z,102601.63
2023-02-19T08:26:44.264Z,102609.88
2023-02-19T08:29:32.262Z,102606.38
2023-02-19T08:32:20.263Z,102609.13
2023-02-19T08:35:08.889Z,102605.09
2023-02-19T08:37:57.686Z,102609.31
2023-02-19T08:40:46.135Z,102603.81
2023-02-19T08:43:36.178Z,102619.19
2023-02-19T08:46:24.263Z,102620.50
2023-02-19T08:49:12.622Z,102611.13
2023-02-19T08:52:00.608Z,102611.25
2023-02-19T08:54:49.070Z,102605.81
2023-02-19T08:57:38.473Z,102605.81
2023-02-19T09:00:28.354Z,102598.69
2023-02-19T09:03:16.484Z,102586.91
2023-02-19T09:06:04.929Z,102586.94
2023-02-19T09:08:52.976Z,102614.63
2023-02-19T09:11:41.146Z,102613.78
2023-02-19T09:14:32.781Z,102610.22
2023-02-19T09:17:22.612Z,102609.75
2023-02-19T09:20:11.345Z,102615.09
2023-02-19T09:23:00.456Z,102629.34
2023-02-19T09:25:48.737Z,102638.34
2023-02-19T09:28:39.635Z,102632.84
2023-02-19T09:31:27.724Z,102640.88
2023-02-19T09:34:17.160Z,102640.38
2023-02-19T09:37:05.183Z,102649.31
2023-02-19T09:39:53.313Z,102644.81
2023-02-19T09:42:44.011Z,102664.47
2023-02-19T09:45:31.983Z,102658.97
2023-02-19T09:48:19.938Z,102665.22
2023-02-19T09:51:11.092Z,102674.94
2023-02-19T09:53:59.977Z,102679.72
2023-02-19T09:56:49.219Z,102678.91
2023-02-19T09:59:43.186Z,102672.63
2023-02-19T10:02:31.337Z,102661.59
2023-02-19T10:05:19.995Z,102673.47
2023-02-19T10:08:16.583Z,102687.69
2023-02-19T10:11:07.176Z,102688.31
2023-02-19T10:14:09.246Z,102683.94
2023-02-19T10:17:02.053Z,102683.91
2023-02-19T10:19:50.726Z,102697.03
2023-02-19T10:22:39.421Z,102707.03
2023-02-19T10:25:29.547Z,102703.84
2023-02-19T10:28:20.685Z,102712.59
2023-02-19T10:31:21.038Z,102718.84
2023-02-19T10:34:19.236Z,102722.75
2023-02-19T10:37:15.447Z,102727.28
2023-02-19T10:40:03.865Z,102731.31
2023-02-19T10:42:55.376Z,102725.47
2023-02-19T10:45:48.761Z,102736.66
2023-02-19T10:48:39.328Z,102732.38
2023-02-19T10:51:34.262Z,102740.13
2023-02-19T10:54:28.511Z,102721.88
2023-02-19T10:57:32.847Z,102721.22
2023-02-19T11:00:26.998Z,102716.34
2023-02-19T11:03:21.179Z,102706.97
2023-02-19T11:06:11.577Z,102721.69
2023-02-19T11:09:01.882Z,102718.91
2023-02-19T11:11:53.143Z,102718.81
2023-02-19T11:14:44.181Z,102706.34
2023-02-19T11:17:34.044Z,102717.16
2023-02-19T11:20:22.507Z,102712.19
2023-02-19T11:23:17.058Z,102719.16
2023-02-19T11:26:07.502Z,102727.28
2023-02-19T11:28:58.268Z,102729.69
2023-02-19T11:31:46.608Z,102724.44
2023-02-19T11:34:36.104Z,102725.47
2023-02-19T11:37:24.206Z,102732.97
2023-02-19T11:40:13.607Z,102730.25
2023-02-19T11:43:11.018Z,102727.34
2023-02-19T11:46:07.350Z,102737.63
2023-02-19T11:49:02.641Z,102747.66
2023-02-19T11:52:07.880Z,102740.09
2023-02-19T11:55:04.058Z,102735.47
2023-02-19T11:57:59.884Z,102748.22
2023-02-19T12:00:56.878Z,102746.19
2023-02-19T12:04:03.036Z,102739.06
2023-02-19T12:07:04.210Z,102752.59
2023-02-19T12:10:04.477Z,102747.66
2023-02-19T12:13:06.791Z,102747.19
2023-02-19T12:16:11.133Z,102739.56
2023-02-19T12:19:21.406Z,102749.34
2023-02-19T12:22:38.699Z,102744.25
2023-02-19T12:25:50.550Z,102757.34
2023-02-19T12:28:54.240Z,102760.59
2023-02-19T12:32:25.895Z,102771.13
2023-02-19T12:35:32.473Z,102778.84
2023-02-19T12:38:33.419Z,102786.00
2023-02-19T12:41:34.325Z,102793.03
2023-02-19T12:44:31.201Z,102808.75
2023-02-19T12:47:22.901Z,102820.13
2023-02-19T12:50:22.654Z,102830.69
2023-02-19T12:53:32.409Z,102831.34
2023-02-19T12:56:27.071Z,102821.88
2023-02-19T12:59:21.612Z,102828.88
2023-02-19T13:02:17.894Z,102823.84
2023-02-19T13:05:15.258Z,102824.84
2023-02-19T13:08:08.507Z,102828.38
2023-02-19T13:11:02.005Z,102823.94
2023-02-19T13:13:55.605Z,102829.06
2023-02-19T13:16:49.221Z,102824.66
2023-02-19T13:19:39.359Z,102831.00
2023-02-19T13:22:53.653Z,102829.94
2023-02-19T13:25:57.535Z,102829.88
2023-02-19T13:29:03.200Z,102835.78
2023-02-19T13:32:11.845Z,102849.50
2023-02-19T13:35:19.815Z,102858.56
2023-02-19T13:38:13.121Z,102864.78
2023-02-19T13:41:01.745Z,102859.69
2023-02-19T13:43:59.420Z,102865.66
2023-02-19T13:46:49.260Z,102871.13
2023-02-19T13:49:43.118Z,102885.59
2023-02-19T13:52:40.578Z,102891.88
2023-02-19T13:55:52.122Z,102879.56
2023-02-19T13:58:55.006Z,102878.59
2023-02-19T14:02:34.265Z,102898.50
2023-02-19T14:06:00.832Z,102896.69
2023-02-19T14:08:52.909Z,102892.72
2023-02-19T14:12:04.411Z,102892.06
2023-02-19T14:14:53.256Z,102888.94
2023-02-19T14:17:43.523Z,102888.34
2023-02-19T14:20:45.776Z,102885.19
2023-02-19T14:23:33.859Z,102892.50
2023-02-19T14:26:23.093Z,102892.75
2023-02-19T14:29:16.559Z,102907.56
2023-02-19T14:32:06.607Z,102892.91
2023-02-19T14:34:54.875Z,102880.06
2023-02-19T14:37:46.791Z,102891.34
2023-02-19T14:40:41.545Z,102880.06
2023-02-19T14:43:30.796Z,102887.81
2023-02-19T14:46:26.293Z,102883.97
2023-02-19T14:49:20.107Z,102866.94
2023-02-19T14:52:18.659Z,102855.22
2023-02-19T14:55:10.386Z,102857.84
2023-02-19T14:58:00.783Z,102855.22
2023-02-19T15:00:48.929Z,102856.34
2023-02-19T15:03:38.832Z,102863.00
2023-02-19T15:06:28.174Z,102842.06
2023-02-19T15:09:17.453Z,102841.81
2023-02-19T15:12:07.671Z,102849.47
2023-02-19T15:14:58.384Z,102853.88
2023-02-19T15:17:46.420Z,102858.13
2023-02-19T15:20:37.925Z,102851.25
2023-02-19T15:23:27.002Z,102854.50
2023-02-19T15:26:23.258Z,102856.09
2023-02-19T15:29:15.408Z,102850.56
2023-02-19T15:32:03.660Z,102850.56
2023-02-19T15:34:56.651Z,102859.09
2023-02-19T15:37:44.746Z,102859.75
2023-02-19T15:40:33.577Z,102864.81
2023-02-19T15:43:26.430Z,102863.25
2023-02-19T15:46:21.525Z,102866.50
2023-02-19T15:49:19.716Z,102859.06
2023-02-19T15:52:12.111Z,102857.25
2023-02-19T15:55:03.954Z,102873.56
2023-02-19T15:57:58.527Z,102885.19
2023-02-19T16:00:50.013Z,102886.47
2023-02-19T16:03:39.924Z,102895.56
2023-02-19T16:06:29.279Z,102904.59
2023-02-19T16:09:22.120Z,102910.75
2023-02-19T16:12:24.912Z,102926.97
2023-02-19T16:15:14.524Z,102930.38
2023-02-19T16:18:03.140Z,102936.06
2023-02-19T16:20:52.521Z,102934.84
2023-02-19T16:23:44.107Z,102936.34
2023-02-19T16:26:40.930Z,102939.59
2023-02-19T16:29:31.037Z,102925.91
2023-02-19T16:32:19.384Z,102917.47
2023-02-19T16:35:36.272Z,102917.72
2023-02-19T16:38:25.966Z,102914.59
2023-02-19T16:41:16.364Z,102909.16
2023-02-19T16:44:31.560Z,102908.63
2023-02-19T16:47:37.721Z,102906.03
2023-02-19T16:50:27.312Z,102904.53
2023-02-19T16:53:20.449Z,102917.81
2023-02-19T16:56:16.502Z,102920.00
2023-02-19T16:59:04.892Z,102920.28
2023-02-19T17:01:52.941Z,102930.72
2023-02-19T17:04:41.025Z,102943.03
2023-02-19T17:07:29.027Z,102947.94
2023-02-19T17:10:19.460Z,102937.63
2023-02-19T17:13:10.099Z,102928.25
2023-02-19T17:15:58.411Z,102937.72
2023-02-19T17:18:46.619Z,102945.97
2023-02-19T17:21:35.636Z,102946.94
2023-02-19T17:24:24.701Z,102953.00
2023-02-19T17:27:13.007Z,102954.78
2023-02-19T17:30:02.517Z,102939.13
2023-02-19T17:32:50.616Z,102951.88
2023-02-19T17:35:38.728Z,102948.03
2023-02-19T17:38:26.955Z,102946.41
2023-02-19T17:41:15.429Z,102948.84
2023-02-19T17:44:03.710Z,102959.81
2023-02-19T17:46:53.209Z,102955.47
2023-02-19T17:49:41.301Z,102955.22
2023-02-19T17:52:29.364Z,102957.50
2023-02-19T17:55:18.877Z,102957.88
2023-02-19T17:58:06.876Z,102947.28
2023-02-19T18:00:55.183Z,102966.91
2023-02-19T18:03:44.796Z,102956.31
2023-02-19T18:06:32.810Z,102959.03
2023-02-19T18:09:22.369Z,102955.50
2023-02-19T18:12:10.532Z,102959.47
2023-02-19T18:14:58.850Z,102952.81
2023-02-19T18:17:47.342Z,102948.88
2023-02-19T18:20:37.193Z,102949.47
2023-02-19T18:23:25.258Z,102938.09
2023-02-19T18:26:13.782Z,102933.91
2023-02-19T18:29:01.871Z,102916.91
2023-02-19T18:31:50.006Z,102903.81
2023-02-19T18:34:38.117Z,102908.81
2023-02-19T18:37:30.100Z,102926.81
2023-02-19T18:40:18.797Z,102920.44
2023-02-19T18:43:06.952Z,102930.44
2023-02-19T18:45:55.011Z,102927.97
2023-02-19T18:48:43.445Z,102918.00
2023-02-19T18:51:31.454Z,102932.63
2023-02-19T18:54:24.178Z,102943.00
2023-02-19T18:57:12.288Z,102939.03
2023-02-19T19:00:00.485Z,102935.94
2023-02-19T19:02:50.241Z,102958.56
2023-02-19T19:05:39.398Z,102950.31
2023-02-19T19:08:29.174Z,102933.16
2023-02-19T19:11:20.803Z,102942.25
2023-02-19T19:14:09.457Z,102946.59
2023-02-19T19:16:57.588Z,102935.94
2023-02-19T19:19:45.768Z,102934.97
2023-02-19T19:22:34.044Z,102946.66
2023-02-19T19:25:23.772Z,102940.13
2023-02-19T19:28:13.311Z,102940.31
2023-02-19T19:31:01.476Z,102937.59
2023-02-19T19:33:50.076Z,102934.34
2023-02-19T19:36:38.782Z,102935.16
2023-02-19T19:39:27.078Z,102942.50
2023-02-19T19:42:15.307Z,102932.06
2023-02-19T19:45:05.270Z,102935.59
2023-02-19T19:47:53.662Z,102939.78
2023-02-19T19:50:41.717Z,102942.53
2023-02-19T19:53:30.022Z,102929.09
2023-02-19T19:56:18.704Z,102923.44
2023-02-19T19:59:06.811Z,102933.31
2023-02-19T20:01:58.289Z,102930.78
2023-02-19T20:04:46.456Z,102935.69
2023-02-19T20:07:34.516Z,102933.25
2023-02-19T20:10:22.810Z,102929.16
2023-02-19T20:13:10.853Z,102929.25
2023-02-19T20:15:58.900Z,102931.81
2023-02-19T20:18:48.347Z,102925.59
2023-02-19T20:21:36.361Z,102927.19
2023-02-19T20:24:28.722Z,102928.94
2023-02-19T20:27:16.703Z,102924.72
2023-02-19T20:30:05.816Z,102920.78
2023-02-19T20:32:54.706Z,102917.75
2023-02-19T20:35:44.034Z,102912.88
2023-02-19T20:38:32.015Z,102907.63
2023-02-19T20:41:20.494Z,102912.91
2023-02-19T20:44:08.537Z,102896.78
2023-02-19T20:47:12.002Z,102907.66
2023-02-19T20:50:00.186Z,102910.50
2023-02-19T20:52:49.859Z,102907.91
2023-02-19T20:55:38.217Z,102916.34
2023-02-19T20:58:27.144Z,102900.63
2023-02-19T21:01:15.056Z,102903.75
2023-02-19T21:04:03.092Z,102904.44
2023-02-19T21:06:52.246Z,102898.16
2023-02-19T21:09:41.720Z,102897.09
2023-02-19T21:12:29.685Z,102897.94
2023-02-19T21:15:18.082Z,102892.38
2023-02-19T21:18:06.181Z,102888.56
2023-02-19T21:20:54.623Z,102884.78
2023-02-19T21:23:42.823Z,102883.69
2023-02-19T21:26:36.975Z,102889.50
2023-02-19T21:29:25.344Z,102894.91
2023-02-19T21:32:13.478Z,102880.94
2023-02-19T21:35:01.927Z,102872.13
2023-02-19T21:37:50.730Z,102872.84
2023-02-19T21:40:38.907Z,102873.00
2023-02-19T21:43:29.282Z,102873.69
2023-02-19T21:46:19.141Z,102859.72
2023-02-19T21:49:07.168Z,102858.34
2023-02-19T21:51:55.152Z,102858.38
2023-02-19T21:54:43.098Z,102858.91
2023-02-19T21:57:31.094Z,102862.31
2023-02-19T22:00:21.136Z,102861.25
2023-02-19T22:03:15.330Z,102858.44
2023-02-19T22:06:03.373Z,102857.66
2023-02-19T22:08:51.561Z,102854.41
2023-02-19T22:11:39.513Z,102856.06
2023-02-19T22:14:27.554Z,102848.47
2023-02-19T22:17:16.954Z,102851.72
2023-02-19T22:20:06.021Z,102835.06
2023-02-19T22:22:54.009Z,102829.22
2023-02-19T22:25:42.128Z,102823.81
2023-02-19T22:28:30.306Z,102835.31
2023-02-19T22:31:21.093Z,102832.34
2023-02-19T22:34:10.562Z,102832.34
2023-02-19T22:36:58.535Z,102833.41
2023-02-19T22:39:46.511Z,102826.09
2023-02-19T22:42:36.043Z,102822.16
2023-02-19T22:45:25.531Z,102829.91
2023-02-19T22:48:19.244Z,102821.34
2023-02-19T22:51:16.532Z,102819.88
2023-02-19T22:54:04.745Z,102816.72
2023-02-19T22:56:53.117Z,102819.28
2023-02-19T22:59:41.054Z,102812.25
2023-02-19T23:02:29.102Z,102810.47
2023-02-19T23:05:17.637Z,102805.88
2023-02-19T23:08:07.251Z,102798.81
2023-02-19T23:10:55.205Z,102801.50
2023-02-19T23:13:43.349Z,102788.91
2023-02-19T23:16:35.998Z,102783.78
2023-02-19T23:19:24.201Z,102788.50
2023-02-19T23:22:12.339Z,102791.50
2023-02-19T23:25:01.909Z,102797.75
2023-02-19T23:27:49.941Z,102794.09
2023-02-19T23:30:37.939Z,102803.19
2023-02-19T23:33:26.101Z,102801.94
2023-02-19T23:36:15.508Z,102798.16
2023-02-19T23:39:03.955Z,102781.31
2023-02-19T23:41:55.056Z,102798.00
2023-02-19T23:44:43.305Z,102788.38
2023-02-19T23:47:31.266Z,102793.53
2023-02-19T23:50:19.461Z,102784.19
2023-02-19T23:53:07.789Z,102785.41
2023-02-19T23:55:56.279Z,102776.84
2023-02-19T23:58:45.669Z,102767.50
